LLHALLSD

Guest
Details From LLHA - Haifa
To LLSD - Sde Dov
Flight Number -
Tags generated
Created
Modified
Stats Distance 45 nm / 83 km
Max Altitude 3,300 ft / 1,006 m
Waypoints 3
Social Downloads 0
Likes 0
Share VATSIM

Download

Looking for another format? Having issues loading an existing format? Contact us
Advertisement - Login to hide

Notes

Basic altitude profile: - Ascent Rate: 100ft/min - Ascent Speed: 90kts - Cruise Altitude: 1000ft - Cruise Speed: 110kts - Descent Rate: 100ft/min - Descent Speed: 120kts Options: - Use NATs: yes - Use PACOTS: no - Use low airways: yes - Use high airways: no

Route

LLHA ATLIT LLSD

ID Type Via Altitude Latitude Longitude Leg Dist Tot Dist Heading (true) Name
O LLHA APT - 0 ft / 0 m 32.81113˚ 35.04414˚ - 0 nm - Haifa
ATLIT FIX - 3,300 ft / 1,006 m 32.69646˚ 34.91495˚ 9 nm 9 nm 223° / 223° -
O LLSD APT - 0 ft / 0 m 32.11466˚ 34.78224˚ 35 nm 45 nm 191° / 191° Sde Dov

Altitude Profile

Advertisement - Login to hide

LLHA

Details ICAO LLHA (HFA)
Name Haifa
Region Israel
Timezone Asia/Jerusalem (UTC+2.0)
Stats Elevation 28 ft / 9 m (AMSL)
Location 32.811125° 35.044139°
Runways 1
Magnetic Variation 4.781° E

METAR

LLHA 131150Z 29007KT 260V320 9999 SCT030 20/13 Q1018 RMK SCT053

Decode

TAF

TAF LLHA 131114Z 1312/1412 30010KT 9999 SCT030 PROB40 1317/1407 24006KT TX20/1312Z TN15/1404Z

Decode

Departure Runways

ID Width Length Bearing (true) Bearing (mag) Surface Threshold Offset Overrun Length
16 98 ft / 30 m 4,161 ft / 1,268 m 158.88° 154.10° Asphalt 164 ft / 50 m 0 ft / 0 m
34 98 ft / 30 m 4,161 ft / 1,268 m 338.88° 334.10° Asphalt 380 ft / 116 m 90 ft / 27 m

LLSD

Details ICAO LLSD (SDV)
Name Sde Dov
Region Israel
Timezone Asia/Jerusalem (UTC+2.0)
Stats Elevation 43 ft / 13 m (AMSL)
Location 32.114661° 34.782238°
Runways 1
Magnetic Variation 4.697° E

METAR

LLSD 131150Z 28012KT 9999 SCT032 21/13 Q1018 RMK BKN058 RERA

Decode

TAF

TAF LLSD 131114Z 1312/1412 29012KT 9999 SCT025 TEMPO 1312/1316 -RA BKN025 BECMG 1319/1321 23006KT SCT030 BECMG 1407/1409 29012KT TX21/1312Z TN16/1404Z

Decode

Destination Runways

ID Width Length Bearing (true) Bearing (mag) Surface Threshold Offset Overrun Length
03 98 ft / 30 m 5,704 ft / 1,738 m 27.61° 22.91° Asphalt 341 ft / 104 m 0 ft / 0 m
21 98 ft / 30 m 5,704 ft / 1,738 m 207.61° 202.91° Asphalt 230 ft / 70 m 0 ft / 0 m

Popular Alternatives